createdAt,value
2022-12-18T00:00:06.116Z,100596.37
2022-12-18T00:02:41.786Z,100602.16
2022-12-18T00:05:10.178Z,100614.19
2022-12-18T00:07:38.347Z,100614.53
2022-12-18T00:10:06.841Z,100624.56
2022-12-18T00:12:35.001Z,100627.50
2022-12-18T00:15:02.912Z,100634.31
2022-12-18T00:17:30.757Z,100641.59
2022-12-18T00:19:59.054Z,100644.13
2022-12-18T00:22:26.970Z,100648.19
2022-12-18T00:24:54.830Z,100653.28
2022-12-18T00:27:23.107Z,100659.06
2022-12-18T00:29:50.901Z,100661.06
2022-12-18T00:32:19.253Z,100667.31
2022-12-18T00:34:47.484Z,100674.47
2022-12-18T00:37:19.997Z,100673.75
2022-12-18T00:39:52.094Z,100672.31
2022-12-18T00:42:39.480Z,100676.88
2022-12-18T00:45:12.580Z,100676.75
2022-12-18T00:47:41.135Z,100671.41
2022-12-18T00:50:10.457Z,100673.91
2022-12-18T00:52:41.518Z,100681.25
2022-12-18T00:55:10.213Z,100685.19
2022-12-18T00:57:38.223Z,100680.69
2022-12-18T01:00:07.177Z,100689.97
2022-12-18T01:02:36.401Z,100684.03
2022-12-18T01:05:04.738Z,100683.84
2022-12-18T01:07:32.487Z,100686.34
2022-12-18T01:10:00.714Z,100688.31
2022-12-18T01:12:28.539Z,100687.25
2022-12-18T01:14:56.364Z,100691.91
2022-12-18T01:17:24.647Z,100698.81
2022-12-18T01:19:52.402Z,100692.44
2022-12-18T01:22:20.461Z,100700.78
2022-12-18T01:24:48.894Z,100696.91
2022-12-18T01:27:16.884Z,100704.34
2022-12-18T01:29:44.762Z,100709.50
2022-12-18T01:32:13.017Z,100712.97
2022-12-18T01:34:41.066Z,100715.03
2022-12-18T01:37:08.893Z,100722.22
2022-12-18T01:39:37.112Z,100722.53
2022-12-18T01:42:06.833Z,100719.97
2022-12-18T01:45:02.895Z,100725.63
2022-12-18T01:47:44.624Z,100734.69
2022-12-18T01:50:16.583Z,100736.78
2022-12-18T01:52:47.634Z,100736.59
2022-12-18T01:55:18.445Z,100742.69
2022-12-18T01:57:48.350Z,100740.72
2022-12-18T02:00:21.490Z,100746.41
2022-12-18T02:02:49.897Z,100743.22
2022-12-18T02:05:20.573Z,100749.16
2022-12-18T02:08:12.865Z,100748.19
2022-12-18T02:10:57.553Z,100748.31
2022-12-18T02:13:48.081Z,100749.63
2022-12-18T02:16:39.481Z,100757.84
2022-12-18T02:19:22.652Z,100755.87
2022-12-18T02:22:27.370Z,100752.81
2022-12-18T02:25:01.262Z,100745.34
2022-12-18T02:27:31.335Z,100759.28
2022-12-18T02:30:01.331Z,100757.22
2022-12-18T02:32:37.056Z,100765.16
2022-12-18T02:35:07.758Z,100771.19
2022-12-18T02:37:36.673Z,100766.06
2022-12-18T02:40:05.949Z,100774.00
2022-12-18T02:42:34.594Z,100774.59
2022-12-18T02:45:02.996Z,100778.66
2022-12-18T02:47:38.723Z,100783.38
2022-12-18T02:50:20.417Z,100784.09
2022-12-18T02:53:07.982Z,100783.75
2022-12-18T02:55:57.438Z,100782.37
2022-12-18T02:58:37.565Z,100786.34
2022-12-18T03:01:17.091Z,100784.97
2022-12-18T03:03:52.256Z,100798.31
2022-12-18T03:06:25.896Z,100798.31
2022-12-18T03:08:59.007Z,100802.03
2022-12-18T03:11:49.036Z,100796.81
2022-12-18T03:14:18.953Z,100808.47
2022-12-18T03:16:51.350Z,100802.69
2022-12-18T03:19:24.051Z,100815.88
2022-12-18T03:21:57.636Z,100815.28
2022-12-18T03:24:27.701Z,100813.88
2022-12-18T03:27:00.725Z,100815.97
2022-12-18T03:29:35.477Z,100822.22
2022-12-18T03:32:10.119Z,100822.81
2022-12-18T03:34:41.088Z,100829.81
2022-12-18T03:37:09.921Z,100833.28
2022-12-18T03:39:38.179Z,100837.72
2022-12-18T03:42:14.255Z,100848.19
2022-12-18T03:44:46.516Z,100840.63
2022-12-18T03:47:29.499Z,100845.59
2022-12-18T03:50:02.619Z,100852.84
2022-12-18T03:52:36.955Z,100851.56
2022-12-18T03:55:07.111Z,100856.09
2022-12-18T03:57:35.404Z,100850.91
2022-12-18T04:00:15.093Z,100854.59
2022-12-18T04:02:53.631Z,100852.12
2022-12-18T04:05:23.364Z,100856.41
2022-12-18T04:07:53.338Z,100860.09
2022-12-18T04:10:21.260Z,100857.41
2022-12-18T04:12:49.684Z,100868.59
2022-12-18T04:15:18.048Z,100863.91
2022-12-18T04:17:50.377Z,100870.09
2022-12-18T04:20:19.460Z,100862.53
2022-12-18T04:22:47.759Z,100865.56
2022-12-18T04:25:15.886Z,100857.84
2022-12-18T04:27:46.112Z,100860.56
2022-12-18T04:30:14.111Z,100869.22
2022-12-18T04:32:46.509Z,100870.66
2022-12-18T04:35:17.877Z,100872.44
2022-12-18T04:37:46.009Z,100876.09
2022-12-18T04:40:14.029Z,100870.59
2022-12-18T04:42:42.598Z,100883.75
2022-12-18T04:45:10.831Z,100880.00
2022-12-18T04:47:38.662Z,100898.22
2022-12-18T04:50:07.405Z,100896.78
2022-12-18T04:52:35.220Z,100903.06
2022-12-18T04:55:03.113Z,100906.41
2022-12-18T04:57:31.351Z,100911.59
2022-12-18T04:59:59.275Z,100911.34
2022-12-18T05:02:27.265Z,100916.44
2022-12-18T05:04:55.611Z,100920.75
2022-12-18T05:07:23.491Z,100921.81
2022-12-18T05:09:51.404Z,100930.50
2022-12-18T05:12:19.561Z,100923.69
2022-12-18T05:14:47.429Z,100925.28
2022-12-18T05:17:15.196Z,100926.91
2022-12-18T05:19:43.386Z,100922.97
2022-12-18T05:22:11.688Z,100929.47
2022-12-18T05:24:39.512Z,100925.06
2022-12-18T05:27:07.816Z,100928.94
2022-12-18T05:29:35.776Z,100936.47
2022-12-18T05:32:03.645Z,100936.22
2022-12-18T05:34:32.271Z,100944.75
2022-12-18T05:37:00.115Z,100939.44
2022-12-18T05:39:28.017Z,100946.56
2022-12-18T05:41:56.193Z,100948.03
2022-12-18T05:44:24.199Z,100950.75
2022-12-18T05:46:52.122Z,100949.31
2022-12-18T05:49:20.243Z,100957.78
2022-12-18T05:51:48.164Z,100962.00
2022-12-18T05:54:16.085Z,100962.25
2022-12-18T05:56:48.479Z,100968.47
2022-12-18T05:59:16.712Z,100962.59
2022-12-18T06:01:44.974Z,100968.22
2022-12-18T06:04:13.630Z,100966.75
2022-12-18T06:06:41.750Z,100962.84
2022-12-18T06:09:10.710Z,100972.56
2022-12-18T06:11:39.770Z,100964.72
2022-12-18T06:14:08.226Z,100971.94
2022-12-18T06:16:36.098Z,100980.59
2022-12-18T06:19:05.924Z,100982.41
2022-12-18T06:21:34.305Z,100980.94
2022-12-18T06:24:03.097Z,100985.50
2022-12-18T06:26:31.531Z,100983.72
2022-12-18T06:28:59.365Z,100985.25
2022-12-18T06:31:27.919Z,100995.69
2022-12-18T06:33:57.405Z,100997.94
2022-12-18T06:36:25.342Z,101003.44
2022-12-18T06:38:53.230Z,101006.31
2022-12-18T06:41:22.514Z,101011.78
2022-12-18T06:43:50.812Z,101015.28
2022-12-18T06:46:19.008Z,101018.12
2022-12-18T06:48:51.395Z,101021.09
2022-12-18T06:51:21.093Z,101022.47
2022-12-18T06:53:49.582Z,101021.22
2022-12-18T06:56:17.734Z,101024.84
2022-12-18T06:58:45.662Z,101035.91
2022-12-18T07:01:14.711Z,101031.50
2022-12-18T07:03:43.989Z,101040.69
2022-12-18T07:06:20.845Z,101044.09
2022-12-18T07:08:50.172Z,101045.91
2022-12-18T07:11:18.797Z,101046.97
2022-12-18T07:13:49.103Z,101046.59
2022-12-18T07:16:24.605Z,101054.59
2022-12-18T07:18:53.801Z,101055.88
2022-12-18T07:21:23.206Z,101066.56
2022-12-18T07:23:51.136Z,101067.59
2022-12-18T07:26:21.249Z,101073.97
2022-12-18T07:28:50.150Z,101078.38
2022-12-18T07:31:23.478Z,101084.94
2022-12-18T07:33:52.476Z,101092.53
2022-12-18T07:36:23.770Z,101088.31
2022-12-18T07:38:53.633Z,101089.31
2022-12-18T07:41:21.764Z,101099.38
2022-12-18T07:43:50.018Z,101099.75
2022-12-18T07:46:18.877Z,101091.37
2022-12-18T07:48:50.022Z,101109.75
2022-12-18T07:51:19.837Z,101103.72
2022-12-18T07:53:50.323Z,101102.28
2022-12-18T07:56:30.579Z,101115.34
2022-12-18T07:59:00.320Z,101118.37
2022-12-18T08:01:28.968Z,101123.31
2022-12-18T08:03:58.695Z,101124.38
2022-12-18T08:06:26.921Z,101131.87
2022-12-18T08:08:55.722Z,101140.19
2022-12-18T08:11:25.696Z,101141.66
2022-12-18T08:13:54.004Z,101142.25
2022-12-18T08:16:22.560Z,101140.88
2022-12-18T08:18:52.432Z,101143.13
2022-12-18T08:21:29.191Z,101143.62
2022-12-18T08:23:59.674Z,101153.62
2022-12-18T08:26:29.683Z,101155.34
2022-12-18T08:28:59.549Z,101155.25
2022-12-18T08:31:29.062Z,101159.91
2022-12-18T08:33:58.548Z,101155.19
2022-12-18T08:36:26.474Z,101156.72
2022-12-18T08:38:55.311Z,101164.06
2022-12-18T08:41:23.775Z,101166.28
2022-12-18T08:44:10.649Z,101164.84
2022-12-18T08:46:41.305Z,101159.84
2022-12-18T08:49:10.199Z,101152.34
2022-12-18T08:51:39.009Z,101161.25
2022-12-18T08:54:07.924Z,101158.38
2022-12-18T08:56:36.165Z,101157.47
2022-12-18T08:59:05.570Z,101156.78
2022-12-18T09:01:33.705Z,101157.59
2022-12-18T09:04:02.579Z,101161.50
2022-12-18T09:06:30.828Z,101172.81
2022-12-18T09:08:59.052Z,101174.75
2022-12-18T09:11:29.119Z,101179.75
2022-12-18T09:13:58.152Z,101181.12
2022-12-18T09:16:32.270Z,101185.00
2022-12-18T09:19:01.358Z,101180.38
2022-12-18T09:21:36.737Z,101180.84
2022-12-18T09:24:09.076Z,101177.03
2022-12-18T09:26:37.801Z,101179.50
2022-12-18T09:29:08.369Z,101174.84
2022-12-18T09:31:36.553Z,101178.81
2022-12-18T09:34:08.231Z,101182.06
2022-12-18T09:36:36.516Z,101174.06
2022-12-18T09:39:08.101Z,101173.66
2022-12-18T09:41:54.487Z,101183.16
2022-12-18T09:44:22.372Z,101177.84
2022-12-18T09:47:00.254Z,101180.03
2022-12-18T09:49:31.607Z,101170.81
2022-12-18T09:52:36.994Z,101183.28
2022-12-18T09:55:25.729Z,101173.19
2022-12-18T09:57:58.458Z,101174.88
2022-12-18T10:00:26.865Z,101173.44
2022-12-18T10:03:01.969Z,101172.47
2022-12-18T10:05:39.069Z,101170.28
2022-12-18T10:08:31.366Z,101184.66
2022-12-18T10:11:05.462Z,101175.22
2022-12-18T10:13:42.661Z,101168.94
2022-12-18T10:16:33.931Z,101177.00
2022-12-18T10:19:10.756Z,101185.16
2022-12-18T10:21:40.981Z,101178.06
2022-12-18T10:24:33.858Z,101178.03
2022-12-18T10:27:13.762Z,101174.84
2022-12-18T10:29:44.301Z,101176.81
2022-12-18T10:32:24.091Z,101164.28
2022-12-18T10:35:00.169Z,101175.78
2022-12-18T10:37:29.482Z,101168.44
2022-12-18T10:40:19.866Z,101172.81
2022-12-18T10:43:13.859Z,101170.03
2022-12-18T10:45:43.249Z,101172.63
2022-12-18T10:48:21.520Z,101174.62
2022-12-18T10:53:41.366Z,101175.09
2022-12-18T10:56:10.035Z,101178.78
2022-12-18T10:58:40.384Z,101181.41
2022-12-18T11:01:16.994Z,101173.97
2022-12-18T11:03:51.130Z,101178.91
2022-12-18T11:06:25.658Z,101168.97
2022-12-18T11:09:21.793Z,101156.16
2022-12-18T11:11:55.624Z,101153.41
2022-12-18T11:14:33.494Z,101151.16
2022-12-18T11:17:24.762Z,101153.78
2022-12-18T11:19:58.522Z,101154.12
2022-12-18T11:22:29.268Z,101158.91
2022-12-18T11:28:24.071Z,101156.06
2022-12-18T11:31:29.033Z,101147.50
2022-12-18T11:34:29.092Z,101140.56
2022-12-18T11:36:59.491Z,101143.75
2022-12-18T11:39:27.900Z,101140.62
2022-12-18T11:42:12.918Z,101137.75
2022-12-18T11:45:04.224Z,101139.75
2022-12-18T11:47:57.160Z,101144.47
2022-12-18T11:50:29.478Z,101133.38
2022-12-18T11:53:01.501Z,101133.47
2022-12-18T11:55:47.272Z,101136.72
2022-12-18T11:58:29.503Z,101131.75
2022-12-18T12:01:06.734Z,101131.00
2022-12-18T12:03:44.781Z,101125.28
2022-12-18T12:06:16.332Z,101122.53
2022-12-18T12:09:26.839Z,101117.88
2022-12-18T12:12:32.572Z,101126.50
2022-12-18T12:15:19.052Z,101125.47
2022-12-18T12:18:00.388Z,101123.56
2022-12-18T12:21:05.523Z,101129.44
2022-12-18T12:23:39.392Z,101132.19
2022-12-18T12:26:11.482Z,101130.81
2022-12-18T12:29:01.330Z,101131.69
2022-12-18T12:32:03.481Z,101135.72
2022-12-18T12:34:33.749Z,101136.69
2022-12-18T12:37:18.904Z,101135.97
2022-12-18T12:39:48.530Z,101130.84
2022-12-18T12:42:58.712Z,101130.03
2022-12-18T12:45:35.778Z,101134.91
2022-12-18T12:48:07.022Z,101137.78
2022-12-18T12:50:36.879Z,101141.78
2022-12-18T12:53:09.303Z,101155.03
2022-12-18T12:55:37.418Z,101160.13
2022-12-18T12:58:13.661Z,101165.56
2022-12-18T13:00:48.231Z,101164.56
2022-12-18T13:03:25.198Z,101164.81
2022-12-18T13:06:00.797Z,101171.34
2022-12-18T13:08:35.952Z,101173.19
2022-12-18T13:11:25.615Z,101176.72
2022-12-18T13:13:56.723Z,101172.25
2022-12-18T13:16:28.567Z,101180.44
2022-12-18T13:18:59.903Z,101179.63
2022-12-18T13:21:32.765Z,101185.66
2022-12-18T13:24:31.661Z,101191.53
2022-12-18T13:26:59.601Z,101187.34
2022-12-18T13:29:46.242Z,101187.62
2022-12-18T13:32:23.319Z,101183.97
2022-12-18T13:35:18.826Z,101183.63
2022-12-18T13:37:55.544Z,101195.28
2022-12-18T13:40:51.644Z,101187.41
2022-12-18T13:43:22.676Z,101185.06
2022-12-18T13:46:07.391Z,101190.00
2022-12-18T13:48:38.240Z,101198.38
2022-12-18T13:51:07.878Z,101198.00
2022-12-18T13:53:52.582Z,101205.34
2022-12-18T13:56:32.934Z,101202.25
2022-12-18T13:59:19.194Z,101201.56
2022-12-18T14:02:02.860Z,101207.31
2022-12-18T14:04:36.941Z,101208.94
2022-12-18T14:07:13.624Z,101205.00
2022-12-18T14:10:25.888Z,101205.69
2022-12-18T14:13:01.272Z,101208.88
2022-12-18T14:15:45.633Z,101207.28
2022-12-18T14:18:28.073Z,101210.84
2022-12-18T14:20:59.110Z,101205.38
2022-12-18T14:23:42.140Z,101207.28
2022-12-18T14:26:30.528Z,101211.25
2022-12-18T14:29:25.895Z,101214.34
2022-12-18T14:32:18.161Z,101211.69
2022-12-18T14:34:57.387Z,101218.16
2022-12-18T14:37:27.579Z,101223.19
2022-12-18T14:40:10.917Z,101228.97
2022-12-18T14:42:40.127Z,101229.38
2022-12-18T14:45:45.611Z,101235.78
2022-12-18T14:48:40.287Z,101238.47
2022-12-18T14:51:14.001Z,101240.13
2022-12-18T14:53:49.124Z,101242.28
2022-12-18T14:56:45.729Z,101238.06
2022-12-18T14:59:26.205Z,101254.31
2022-12-18T15:02:12.861Z,101261.38
2022-12-18T15:04:44.887Z,101268.75
2022-12-18T15:07:19.377Z,101256.34
2022-12-18T15:10:12.713Z,101256.81
2022-12-18T15:13:04.622Z,101261.31
2022-12-18T15:15:39.006Z,101278.72
2022-12-18T15:18:10.015Z,101274.69
2022-12-18T15:20:42.391Z,101272.97
2022-12-18T15:23:36.720Z,101276.25
2022-12-18T15:26:11.604Z,101278.59
2022-12-18T15:28:40.671Z,101296.06
2022-12-18T15:31:15.929Z,101294.16
2022-12-18T15:33:47.366Z,101305.06
2022-12-18T15:36:19.314Z,101306.34
2022-12-18T15:39:05.259Z,101311.66
2022-12-18T15:41:36.610Z,101316.19
2022-12-18T15:44:26.839Z,101317.59
2022-12-18T15:46:57.882Z,101320.25
2022-12-18T15:49:25.919Z,101317.88
2022-12-18T15:51:56.528Z,101317.38
2022-12-18T15:54:44.549Z,101320.50
2022-12-18T15:57:25.225Z,101321.72
2022-12-18T15:59:59.485Z,101315.22
2022-12-18T16:02:29.637Z,101315.63
2022-12-18T16:04:58.140Z,101315.19
2022-12-18T16:07:28.142Z,101319.47
2022-12-18T16:10:00.398Z,101327.22
2022-12-18T16:12:30.394Z,101335.31
2022-12-18T16:14:58.667Z,101334.28
2022-12-18T16:17:26.752Z,101345.78
2022-12-18T16:19:54.914Z,101343.88
2022-12-18T16:22:24.985Z,101351.91
2022-12-18T16:24:54.161Z,101349.81
2022-12-18T16:27:23.899Z,101354.47
2022-12-18T16:29:52.257Z,101359.78
2022-12-18T16:32:22.174Z,101366.03
2022-12-18T16:34:51.241Z,101356.03
2022-12-18T16:37:19.566Z,101359.00
2022-12-18T16:39:47.602Z,101367.78
2022-12-18T16:42:20.537Z,101368.03
2022-12-18T16:44:50.142Z,101357.34
2022-12-18T16:47:18.415Z,101366.69
2022-12-18T16:49:46.587Z,101373.97
2022-12-18T16:52:15.272Z,101377.38
2022-12-18T16:54:43.271Z,101381.00
2022-12-18T16:57:16.698Z,101383.22
2022-12-18T16:59:45.523Z,101379.78
2022-12-18T17:02:22.204Z,101379.53
2022-12-18T17:04:58.109Z,101376.06
2022-12-18T17:07:27.151Z,101368.87
2022-12-18T17:09:55.658Z,101360.41
2022-12-18T17:12:24.019Z,101357.25
2022-12-18T17:14:52.075Z,101359.69
2022-12-18T17:17:22.253Z,101361.22
2022-12-18T17:19:52.141Z,101356.28
2022-12-18T17:22:21.796Z,101357.47
2022-12-18T17:24:49.713Z,101355.91
2022-12-18T17:27:17.703Z,101353.19
2022-12-18T17:29:48.361Z,101355.22
2022-12-18T17:32:18.075Z,101354.97
2022-12-18T17:34:49.020Z,101345.47
2022-12-18T17:37:17.037Z,101357.47
2022-12-18T17:39:45.066Z,101365.56
2022-12-18T17:42:15.165Z,101372.69
2022-12-18T17:44:44.365Z,101374.22
2022-12-18T17:47:13.600Z,101382.00
2022-12-18T17:49:42.179Z,101382.81
2022-12-18T17:52:10.513Z,101384.72
2022-12-18T17:54:41.587Z,101387.22
2022-12-18T17:57:28.898Z,101374.22
2022-12-18T18:00:04.902Z,101378.50
2022-12-18T18:02:37.550Z,101362.50
2022-12-18T18:05:06.229Z,101367.72
2022-12-18T18:07:34.249Z,101364.66
2022-12-18T18:10:02.200Z,101369.59
2022-12-18T18:12:50.051Z,101367.59
2022-12-18T18:15:18.188Z,101376.13
2022-12-18T18:17:46.528Z,101382.00
2022-12-18T18:20:22.271Z,101373.00
2022-12-18T18:22:51.070Z,101374.69
2022-12-18T18:25:19.145Z,101372.53
2022-12-18T18:27:47.818Z,101378.31
2022-12-18T18:30:16.621Z,101374.69
2022-12-18T18:32:44.650Z,101380.81
2022-12-18T18:35:37.524Z,101387.69
2022-12-18T18:38:02.717Z,101395.22
2022-12-18T18:40:30.918Z,101407.56
2022-12-18T18:42:58.875Z,101410.44
2022-12-18T18:45:27.442Z,101410.50
2022-12-18T18:47:55.425Z,101411.16
2022-12-18T18:50:23.494Z,101417.38
2022-12-18T18:52:53.160Z,101410.47
2022-12-18T18:55:25.582Z,101416.84
2022-12-18T18:57:54.240Z,101414.56
2022-12-18T19:00:22.289Z,101413.28
2022-12-18T19:02:52.165Z,101400.84
2022-12-18T19:05:23.296Z,101403.56
2022-12-18T19:07:51.208Z,101401.44
2022-12-18T19:10:19.196Z,101408.50
2022-12-18T19:13:05.777Z,101404.44
2022-12-18T19:15:34.486Z,101411.34
2022-12-18T19:18:03.139Z,101422.44
2022-12-18T19:20:31.241Z,101424.66
2022-12-18T19:22:59.312Z,101425.06
2022-12-18T19:25:40.678Z,101419.63
2022-12-18T19:28:13.231Z,101421.91
2022-12-18T19:30:59.006Z,101421.28
2022-12-18T19:33:43.205Z,101429.53
2022-12-18T19:36:14.938Z,101434.50
2022-12-18T19:38:44.976Z,101428.25
2022-12-18T19:41:14.964Z,101438.94
2022-12-18T19:43:43.424Z,101438.56
2022-12-18T19:46:14.817Z,101441.75
2022-12-18T19:48:44.620Z,101447.22
2022-12-18T19:51:29.400Z,101453.19
2022-12-18T19:54:07.295Z,101453.69
2022-12-18T19:56:36.103Z,101449.25
2022-12-18T19:59:05.385Z,101457.91
2022-12-18T20:01:33.949Z,101457.31
2022-12-18T20:04:03.817Z,101452.69
2022-12-18T20:06:34.880Z,101447.47
2022-12-18T20:09:06.922Z,101447.84
2022-12-18T20:11:42.046Z,101456.50
2022-12-18T20:14:12.170Z,101457.25
2022-12-18T20:16:41.061Z,101461.81
2022-12-18T20:19:11.576Z,101467.19
2022-12-18T20:21:41.017Z,101462.09
2022-12-18T20:24:09.357Z,101470.50
2022-12-18T20:26:38.120Z,101476.47
2022-12-18T20:29:07.100Z,101483.59
2022-12-18T20:31:35.247Z,101481.41
2022-12-18T20:34:04.847Z,101480.66
2022-12-18T20:36:35.260Z,101482.56
2022-12-18T20:39:07.520Z,101488.53
2022-12-18T20:41:38.967Z,101491.97
2022-12-18T20:44:09.854Z,101485.25
2022-12-18T20:46:55.772Z,101481.44
2022-12-18T20:49:24.681Z,101477.34
2022-12-18T20:51:54.676Z,101490.84
2022-12-18T20:54:23.731Z,101490.75
2022-12-18T20:56:51.881Z,101493.00
2022-12-18T20:59:20.720Z,101488.03
2022-12-18T21:01:49.831Z,101483.34
2022-12-18T21:04:21.384Z,101484.75
2022-12-18T21:06:55.721Z,101499.22
2022-12-18T21:09:37.709Z,101487.75
2022-12-18T21:12:33.370Z,101499.13
2022-12-18T21:15:07.856Z,101495.16
2022-12-18T21:17:44.109Z,101506.34
2022-12-18T21:20:17.588Z,101501.00
2022-12-18T21:22:47.309Z,101492.62
2022-12-18T21:25:15.202Z,101496.31
2022-12-18T21:27:43.208Z,101490.06
2022-12-18T21:30:11.956Z,101480.38
2022-12-18T21:32:40.015Z,101485.34
2022-12-18T21:35:08.272Z,101498.56
2022-12-18T21:37:36.635Z,101497.81
2022-12-18T21:40:05.131Z,101503.03
2022-12-18T21:42:51.760Z,101481.03
2022-12-18T21:45:20.228Z,101472.00
2022-12-18T21:47:48.273Z,101472.19
2022-12-18T21:50:16.179Z,101479.50
2022-12-18T21:52:44.472Z,101475.44
2022-12-18T21:55:12.358Z,101475.31
2022-12-18T21:57:40.433Z,101472.88
2022-12-18T22:00:19.169Z,101485.63
2022-12-18T22:03:17.101Z,101479.94
2022-12-18T22:05:36.894Z,101483.06
2022-12-18T22:08:07.016Z,101482.06
2022-12-18T22:10:35.519Z,101474.81
2022-12-18T22:13:04.747Z,101471.16
2022-12-18T22:15:33.610Z,101474.22
2022-12-18T22:18:01.546Z,101479.09
2022-12-18T22:20:30.203Z,101476.53
2022-12-18T22:23:01.540Z,101479.59
2022-12-18T22:25:35.836Z,101474.56
2022-12-18T22:28:26.877Z,101475.91
2022-12-18T22:30:59.073Z,101472.06
2022-12-18T22:33:28.714Z,101483.69
2022-12-18T22:35:56.670Z,101485.13
2022-12-18T22:38:24.657Z,101493.91
2022-12-18T22:40:52.948Z,101490.16
2022-12-18T22:43:21.046Z,101490.72
2022-12-18T22:45:49.292Z,101490.38
2022-12-18T22:48:17.837Z,101490.28
2022-12-18T22:50:45.744Z,101487.50
2022-12-18T22:53:13.656Z,101488.78
2022-12-18T22:55:41.900Z,101490.97
2022-12-18T22:58:09.734Z,101493.59
2022-12-18T23:00:37.681Z,101488.66
2022-12-18T23:03:07.307Z,101487.41
2022-12-18T23:05:35.622Z,101486.19
2022-12-18T23:08:03.596Z,101487.50
2022-12-18T23:10:31.871Z,101490.53
2022-12-18T23:12:59.785Z,101494.50
2022-12-18T23:15:28.497Z,101493.78
2022-12-18T23:17:58.621Z,101493.91
2022-12-18T23:20:27.664Z,101490.13
2022-12-18T23:22:55.632Z,101494.91
2022-12-18T23:25:23.973Z,101498.56
2022-12-18T23:27:51.940Z,101504.63
2022-12-18T23:30:19.836Z,101499.34
2022-12-18T23:32:48.475Z,101493.38
2022-12-18T23:35:17.558Z,101496.03
2022-12-18T23:38:02.622Z,101491.28
2022-12-18T23:40:31.005Z,101498.00
2022-12-18T23:42:59.742Z,101484.56
2022-12-18T23:45:27.852Z,101488.50
2022-12-18T23:47:56.097Z,101482.34
2022-12-18T23:50:29.105Z,101490.84
2022-12-18T23:53:03.717Z,101493.72
2022-12-18T23:55:38.837Z,101484.25
2022-12-18T23:58:08.209Z,101489.12
